createdAt,value
2022-09-21T00:01:32.655Z,8.90
2022-09-21T00:04:03.760Z,8.84
2022-09-21T00:06:35.814Z,8.83
2022-09-21T00:09:06.280Z,8.83
2022-09-21T00:11:33.847Z,8.81
2022-09-21T00:14:10.292Z,8.87
2022-09-21T00:16:42.717Z,8.96
2022-09-21T00:19:10.614Z,9.08
2022-09-21T00:21:38.206Z,9.12
2022-09-21T00:24:08.034Z,9.09
2022-09-21T00:26:35.014Z,9.03
2022-09-21T00:29:18.782Z,8.98
2022-09-21T00:31:46.755Z,8.98
2022-09-21T00:34:13.518Z,8.99
2022-09-21T00:36:40.228Z,8.97
2022-09-21T00:39:06.956Z,8.97
2022-09-21T00:41:38.098Z,8.98
2022-09-21T00:44:20.011Z,8.93
2022-09-21T00:46:53.360Z,8.86
2022-09-21T00:49:23.725Z,8.85
2022-09-21T00:52:00.447Z,8.84
2022-09-21T00:54:33.646Z,8.97
2022-09-21T00:57:01.551Z,8.97
2022-09-21T00:59:36.835Z,8.99
2022-09-21T01:02:05.666Z,8.98
2022-09-21T01:04:33.086Z,8.98
2022-09-21T01:07:03.837Z,9.01
2022-09-21T01:09:30.579Z,8.97
2022-09-21T01:12:18.805Z,8.96
2022-09-21T01:15:23.770Z,8.94
2022-09-21T01:18:00.614Z,8.88
2022-09-21T01:20:46.053Z,8.89
2022-09-21T01:23:26.453Z,8.87
2022-09-21T01:25:58.984Z,8.79
2022-09-21T01:28:41.003Z,8.70
2022-09-21T01:31:16.767Z,8.59
2022-09-21T01:33:55.259Z,8.49
2022-09-21T01:36:30.307Z,8.43
2022-09-21T01:39:08.339Z,8.41
2022-09-21T01:41:38.174Z,8.36
2022-09-21T01:44:13.605Z,8.29
2022-09-21T01:46:41.592Z,8.34
2022-09-21T01:49:19.189Z,8.42
2022-09-21T01:51:51.843Z,8.37
2022-09-21T01:54:33.784Z,8.27
2022-09-21T01:57:41.734Z,8.21
2022-09-21T02:00:08.861Z,8.15
2022-09-21T02:02:44.924Z,8.16
2022-09-21T02:05:12.362Z,8.17
2022-09-21T02:07:42.472Z,8.12
2022-09-21T02:10:14.660Z,8.11
2022-09-21T02:12:41.236Z,8.05
2022-09-21T02:15:08.608Z,8.03
2022-09-21T02:17:42.594Z,8.01
2022-09-21T02:20:30.338Z,7.98
2022-09-21T02:23:17.091Z,7.97
2022-09-21T02:26:13.388Z,8.00
2022-09-21T02:28:43.014Z,7.96
2022-09-21T02:31:21.519Z,7.95
2022-09-21T02:33:58.859Z,7.97
2022-09-21T02:36:37.895Z,7.98
2022-09-21T02:39:10.536Z,7.96
2022-09-21T02:41:49.338Z,8.00
2022-09-21T02:44:32.599Z,8.02
2022-09-21T02:47:10.020Z,8.02
2022-09-21T02:49:43.941Z,7.99
2022-09-21T02:52:16.376Z,8.02
2022-09-21T02:54:46.321Z,8.06
2022-09-21T02:57:16.021Z,8.09
2022-09-21T02:59:43.303Z,8.13
2022-09-21T03:02:11.453Z,8.15
2022-09-21T03:04:39.793Z,8.16
2022-09-21T03:07:06.140Z,8.14
2022-09-21T03:09:32.747Z,8.16
2022-09-21T03:11:59.182Z,8.11
2022-09-21T03:14:26.866Z,8.07
2022-09-21T03:16:53.308Z,8.01
2022-09-21T03:19:22.209Z,7.98
2022-09-21T03:21:49.685Z,8.01
2022-09-21T03:24:18.764Z,7.97
2022-09-21T03:26:47.229Z,7.94
2022-09-21T03:29:17.723Z,7.95
2022-09-21T03:31:44.198Z,7.94
2022-09-21T03:34:17.090Z,7.91
2022-09-21T03:36:43.724Z,7.97
2022-09-21T03:39:10.119Z,8.17
2022-09-21T03:41:38.648Z,8.35
2022-09-21T03:44:06.438Z,8.32
2022-09-21T03:46:35.564Z,8.18
2022-09-21T03:49:06.399Z,8.17
2022-09-21T03:51:38.810Z,8.05
2022-09-21T03:54:06.863Z,7.98
2022-09-21T03:56:35.490Z,7.92
2022-09-21T03:59:13.163Z,7.85
2022-09-21T04:01:40.327Z,7.82
2022-09-21T04:04:09.499Z,7.81
2022-09-21T04:06:36.391Z,7.81
2022-09-21T04:09:02.940Z,7.78
2022-09-21T04:11:29.861Z,7.78
2022-09-21T04:14:00.087Z,7.79
2022-09-21T04:16:32.270Z,7.80
2022-09-21T04:19:01.492Z,7.79
2022-09-21T04:21:29.295Z,7.78
2022-09-21T04:23:56.418Z,7.77
2022-09-21T04:26:27.473Z,7.75
2022-09-21T04:29:02.215Z,7.82
2022-09-21T04:31:31.421Z,7.87
2022-09-21T04:33:58.239Z,7.84
2022-09-21T04:36:26.313Z,7.82
2022-09-21T04:38:52.795Z,7.83
2022-09-21T04:41:20.749Z,7.83
2022-09-21T04:43:49.655Z,7.80
2022-09-21T04:46:18.160Z,7.81
2022-09-21T04:48:49.031Z,7.77
2022-09-21T04:51:17.884Z,7.74
2022-09-21T04:53:46.351Z,7.70
2022-09-21T04:56:16.557Z,7.68
2022-09-21T04:58:45.365Z,7.65
2022-09-21T05:01:11.996Z,7.66
2022-09-21T05:03:39.187Z,7.69
2022-09-21T05:06:06.187Z,7.70
2022-09-21T05:08:32.739Z,7.72
2022-09-21T05:11:01.197Z,7.69
2022-09-21T05:13:27.716Z,7.68
2022-09-21T05:15:54.301Z,7.66
2022-09-21T05:18:22.947Z,7.63
2022-09-21T05:21:05.119Z,7.67
2022-09-21T05:23:32.212Z,7.76
2022-09-21T05:26:01.322Z,7.79
2022-09-21T05:28:35.463Z,7.80
2022-09-21T05:31:25.436Z,7.83
2022-09-21T05:33:58.322Z,7.87
2022-09-21T05:36:39.982Z,7.91
2022-09-21T05:39:06.757Z,7.92
2022-09-21T05:41:33.486Z,7.97
2022-09-21T05:44:00.414Z,8.00
2022-09-21T05:47:02.116Z,8.04
2022-09-21T05:49:43.160Z,8.13
2022-09-21T05:52:31.847Z,8.31
2022-09-21T05:55:27.692Z,8.34
2022-09-21T05:58:08.985Z,8.36
2022-09-21T06:01:06.386Z,8.43
2022-09-21T06:03:33.200Z,8.42
2022-09-21T06:05:59.686Z,8.48
2022-09-21T06:08:27.560Z,8.50
2022-09-21T06:10:56.531Z,8.61
2022-09-21T06:13:23.103Z,8.67
2022-09-21T06:15:53.290Z,8.74
2022-09-21T06:18:20.194Z,8.82
2022-09-21T06:20:46.946Z,8.91
2022-09-21T06:23:16.553Z,9.00
2022-09-21T06:25:58.518Z,9.04
2022-09-21T06:28:25.814Z,9.11
2022-09-21T06:30:53.492Z,9.22
2022-09-21T06:33:20.672Z,9.34
2022-09-21T06:35:52.971Z,9.44
2022-09-21T06:38:19.612Z,9.53
2022-09-21T06:40:46.052Z,9.62
2022-09-21T06:43:12.525Z,9.74
2022-09-21T06:45:42.756Z,9.88
2022-09-21T06:48:09.478Z,10.01
2022-09-21T06:50:36.646Z,10.16
2022-09-21T06:53:09.651Z,10.32
2022-09-21T06:55:36.145Z,10.45
2022-09-21T06:58:05.984Z,10.54
2022-09-21T07:00:35.918Z,10.71
2022-09-21T07:03:02.368Z,10.80
2022-09-21T07:05:31.193Z,10.92
2022-09-21T07:07:58.797Z,11.03
2022-09-21T07:10:27.587Z,11.16
2022-09-21T07:12:55.405Z,11.27
2022-09-21T07:15:21.908Z,11.41
2022-09-21T07:17:52.385Z,11.54
2022-09-21T07:20:21.408Z,11.63
2022-09-21T07:22:48.064Z,11.77
2022-09-21T07:25:14.571Z,11.89
2022-09-21T07:27:41.495Z,12.04
2022-09-21T07:30:09.167Z,12.16
2022-09-21T07:32:38.299Z,12.39
2022-09-21T07:35:05.272Z,12.47
2022-09-21T07:37:32.359Z,12.63
2022-09-21T07:39:58.855Z,12.76
2022-09-21T07:42:25.327Z,12.92
2022-09-21T07:45:03.080Z,13.05
2022-09-21T07:47:30.140Z,13.19
2022-09-21T07:49:56.613Z,13.27
2022-09-21T07:52:24.283Z,13.39
2022-09-21T07:54:50.841Z,13.46
2022-09-21T07:57:19.724Z,13.46
2022-09-21T07:59:52.134Z,13.58
2022-09-21T08:02:18.685Z,13.65
2022-09-21T08:04:45.398Z,13.72
2022-09-21T08:07:13.124Z,13.87
2022-09-21T08:09:39.717Z,13.96
2022-09-21T08:12:13.323Z,14.15
2022-09-21T08:14:42.461Z,14.08
2022-09-21T08:17:12.177Z,14.16
2022-09-21T08:19:38.716Z,14.26
2022-09-21T08:22:06.127Z,14.35
2022-09-21T08:24:32.780Z,14.33
2022-09-21T08:26:59.839Z,14.30
2022-09-21T08:29:26.690Z,14.40
2022-09-21T08:31:53.502Z,14.53
2022-09-21T08:34:20.121Z,14.58
2022-09-21T08:36:46.521Z,14.65
2022-09-21T08:39:14.140Z,14.71
2022-09-21T08:41:54.860Z,14.80
2022-09-21T08:44:27.858Z,14.86
2022-09-21T08:47:19.806Z,14.99
2022-09-21T08:49:52.221Z,15.09
2022-09-21T08:52:26.152Z,15.14
2022-09-21T08:55:00.164Z,15.21
2022-09-21T08:57:32.081Z,15.19
2022-09-21T09:00:00.577Z,15.50
2022-09-21T09:02:54.764Z,15.88
2022-09-21T09:05:44.519Z,16.34
2022-09-21T09:08:32.033Z,16.34
2022-09-21T09:11:25.853Z,16.52
2022-09-21T09:14:22.780Z,16.70
2022-09-21T09:17:11.096Z,16.97
2022-09-21T09:19:43.471Z,17.27
2022-09-21T09:22:16.307Z,19.08
2022-09-21T09:24:56.795Z,24.80
2022-09-21T09:27:53.437Z,29.41
2022-09-21T09:30:30.305Z,31.51
2022-09-21T09:32:59.742Z,32.20
2022-09-21T09:35:40.201Z,32.03
2022-09-21T09:38:21.743Z,32.61
2022-09-21T09:41:12.718Z,33.48
2022-09-21T09:44:03.775Z,31.89
2022-09-21T09:47:28.644Z,28.64
2022-09-21T09:50:21.099Z,25.58
2022-09-21T09:53:03.582Z,24.17
2022-09-21T09:55:39.805Z,23.00
2022-09-21T09:58:26.185Z,22.25
2022-09-21T10:00:59.270Z,22.72
2022-09-21T10:03:30.414Z,27.38
2022-09-21T10:05:56.814Z,26.76
2022-09-21T10:08:44.644Z,26.36
2022-09-21T10:11:13.301Z,29.44
2022-09-21T10:13:42.412Z,30.50
2022-09-21T10:16:17.821Z,28.24
2022-09-21T10:18:55.419Z,28.77
2022-09-21T10:21:25.012Z,31.82
2022-09-21T10:24:01.653Z,30.26
2022-09-21T10:26:34.915Z,27.94
2022-09-21T10:29:17.021Z,27.20
2022-09-21T10:32:03.948Z,29.47
2022-09-21T10:34:35.286Z,32.43
2022-09-21T10:37:22.725Z,33.94
2022-09-21T10:39:49.086Z,34.42
2022-09-21T10:42:18.459Z,35.01
2022-09-21T10:44:53.360Z,36.14
2022-09-21T10:47:34.183Z,36.03
2022-09-21T10:50:03.196Z,35.51
2022-09-21T10:52:40.659Z,36.06
2022-09-21T10:55:15.077Z,36.42
2022-09-21T10:57:43.521Z,36.52
2022-09-21T11:00:29.500Z,34.69
2022-09-21T11:02:58.883Z,34.49
2022-09-21T11:05:33.180Z,33.93
2022-09-21T11:08:15.676Z,34.55
2022-09-21T11:10:51.800Z,34.89
2022-09-21T11:13:47.270Z,35.41
2022-09-21T11:16:13.853Z,34.92
2022-09-21T11:18:44.313Z,34.70
2022-09-21T11:21:34.060Z,35.30
2022-09-21T11:24:36.712Z,35.29
2022-09-21T11:27:22.657Z,32.68
2022-09-21T11:30:04.895Z,32.71
2022-09-21T11:32:56.416Z,33.27
2022-09-21T11:35:49.537Z,32.23
2022-09-21T11:38:28.950Z,29.43
2022-09-21T11:41:09.307Z,29.81
2022-09-21T11:44:02.907Z,30.83
2022-09-21T11:46:55.611Z,31.26
2022-09-21T11:49:31.432Z,29.57
2022-09-21T11:52:38.508Z,27.63
2022-09-21T11:55:10.576Z,27.82
2022-09-21T11:58:23.623Z,26.62
2022-09-21T12:00:54.042Z,25.37
2022-09-21T12:04:03.695Z,24.53
2022-09-21T12:07:08.489Z,22.44
2022-09-21T12:10:14.023Z,21.07
2022-09-21T12:12:53.629Z,21.07
2022-09-21T12:15:20.152Z,20.73
2022-09-21T12:18:09.700Z,20.66
2022-09-21T12:20:59.942Z,20.51
2022-09-21T12:24:05.117Z,20.50
2022-09-21T12:26:43.288Z,20.69
2022-09-21T12:29:30.753Z,20.61
2022-09-21T12:32:08.105Z,20.31
2022-09-21T12:34:41.643Z,20.02
2022-09-21T12:37:11.247Z,19.93
2022-09-21T12:39:44.459Z,19.77
2022-09-21T12:42:28.053Z,19.69
2022-09-21T12:45:06.004Z,19.84
2022-09-21T12:47:38.682Z,20.03
2022-09-21T12:50:21.583Z,20.29
2022-09-21T12:52:50.583Z,20.69
2022-09-21T12:55:33.196Z,20.17
2022-09-21T12:58:20.885Z,20.15
2022-09-21T13:00:59.859Z,20.26
2022-09-21T13:03:37.669Z,20.12
2022-09-21T13:06:23.026Z,20.16
2022-09-21T13:11:23.355Z,20.21
2022-09-21T13:13:58.327Z,20.52
2022-09-21T13:16:36.237Z,20.26
2022-09-21T13:19:26.286Z,20.42
2022-09-21T13:22:11.438Z,20.72
2022-09-21T13:24:37.971Z,20.44
2022-09-21T13:27:04.639Z,20.14
2022-09-21T13:29:36.364Z,19.94
2022-09-21T13:32:12.277Z,19.71
2022-09-21T13:34:40.775Z,19.41
2022-09-21T13:37:19.187Z,19.44
2022-09-21T13:39:50.957Z,19.66
2022-09-21T13:42:29.546Z,20.13
2022-09-21T13:44:57.379Z,20.31
2022-09-21T13:47:32.306Z,20.64
2022-09-21T13:50:01.560Z,20.54
2022-09-21T13:52:37.965Z,20.38
2022-09-21T13:55:07.371Z,20.74
2022-09-21T13:57:41.447Z,21.00
2022-09-21T14:00:31.009Z,21.03
2022-09-21T14:03:01.666Z,20.52
2022-09-21T14:05:34.944Z,20.51
2022-09-21T14:08:21.710Z,20.48
2022-09-21T14:11:00.184Z,20.69
2022-09-21T14:14:10.803Z,20.90
2022-09-21T14:16:40.338Z,20.85
2022-09-21T14:19:18.544Z,20.35
2022-09-21T14:22:03.465Z,20.13
2022-09-21T14:24:35.732Z,19.69
2022-09-21T14:27:41.154Z,19.25
2022-09-21T14:30:27.804Z,18.96
2022-09-21T14:33:00.375Z,18.84
2022-09-21T14:35:33.778Z,18.73
2022-09-21T14:38:20.892Z,18.59
2022-09-21T14:40:51.233Z,18.32
2022-09-21T14:43:44.857Z,18.23
2022-09-21T14:46:32.716Z,18.10
2022-09-21T14:49:33.130Z,17.94
2022-09-21T14:52:14.261Z,17.80
2022-09-21T14:55:23.419Z,17.68
2022-09-21T14:58:07.829Z,17.58
2022-09-21T15:00:45.798Z,17.55
2022-09-21T15:03:27.384Z,17.51
2022-09-21T15:06:14.950Z,17.49
2022-09-21T15:09:04.144Z,17.51
2022-09-21T15:11:42.099Z,17.39
2022-09-21T15:14:44.632Z,17.24
2022-09-21T15:17:23.787Z,17.25
2022-09-21T15:19:50.173Z,17.20
2022-09-21T15:22:19.558Z,17.23
2022-09-21T15:24:57.257Z,17.34
2022-09-21T15:27:27.525Z,17.62
2022-09-21T15:29:56.440Z,18.29
2022-09-21T15:32:43.412Z,19.01
2022-09-21T15:35:29.351Z,20.09
2022-09-21T15:37:57.461Z,20.83
2022-09-21T15:40:26.634Z,20.54
2022-09-21T15:43:11.448Z,21.16
2022-09-21T15:45:49.959Z,21.72
2022-09-21T15:48:16.670Z,22.40
2022-09-21T15:50:44.853Z,22.81
2022-09-21T15:53:25.459Z,23.68
2022-09-21T15:55:52.409Z,23.94
2022-09-21T15:58:39.044Z,23.62
2022-09-21T16:01:14.804Z,23.70
2022-09-21T16:03:42.685Z,23.33
2022-09-21T16:06:23.816Z,22.87
2022-09-21T16:08:50.666Z,22.07
2022-09-21T16:11:24.424Z,22.00
2022-09-21T16:14:14.849Z,21.47
2022-09-21T16:17:10.361Z,21.01
2022-09-21T16:19:40.476Z,20.52
2022-09-21T16:22:21.238Z,20.11
2022-09-21T16:24:56.273Z,19.58
2022-09-21T16:27:27.116Z,19.60
2022-09-21T16:29:55.172Z,19.46
2022-09-21T16:32:30.350Z,19.48
2022-09-21T16:35:28.785Z,19.21
2022-09-21T16:37:57.833Z,19.03
2022-09-21T16:40:26.319Z,18.92
2022-09-21T16:42:52.792Z,18.81
2022-09-21T16:45:30.796Z,18.64
2022-09-21T16:47:58.179Z,18.48
2022-09-21T16:50:24.797Z,18.34
2022-09-21T16:52:51.523Z,18.21
2022-09-21T16:55:24.451Z,18.00
2022-09-21T16:58:03.946Z,17.77
2022-09-21T17:00:37.302Z,17.60
2022-09-21T17:03:04.104Z,17.42
2022-09-21T17:05:30.629Z,17.25
2022-09-21T17:07:59.170Z,17.05
2022-09-21T17:10:30.942Z,16.80
2022-09-21T17:13:00.067Z,16.54
2022-09-21T17:15:28.206Z,16.35
2022-09-21T17:17:54.851Z,16.17
2022-09-21T17:20:37.191Z,16.05
2022-09-21T17:23:06.858Z,15.82
2022-09-21T17:25:37.756Z,15.60
2022-09-21T17:28:16.768Z,15.44
2022-09-21T17:30:45.188Z,15.28
2022-09-21T17:33:11.903Z,15.15
2022-09-21T17:35:40.560Z,15.07
2022-09-21T17:38:11.267Z,15.00
2022-09-21T17:40:41.240Z,14.85
2022-09-21T17:43:13.992Z,14.71
2022-09-21T17:46:03.724Z,14.56
2022-09-21T17:48:33.870Z,14.38
2022-09-21T17:51:01.028Z,14.28
2022-09-21T17:53:27.827Z,14.13
2022-09-21T17:55:58.134Z,14.01
2022-09-21T17:58:24.533Z,13.86
2022-09-21T18:01:03.201Z,13.76
2022-09-21T18:03:32.448Z,13.65
2022-09-21T18:05:59.244Z,13.54
2022-09-21T18:08:27.311Z,13.40
2022-09-21T18:11:07.880Z,13.35
2022-09-21T18:13:45.529Z,13.23
2022-09-21T18:16:20.916Z,13.12
2022-09-21T18:19:26.216Z,13.10
2022-09-21T18:21:59.208Z,12.94
2022-09-21T18:24:30.983Z,12.86
2022-09-21T18:26:58.646Z,12.74
2022-09-21T18:29:41.769Z,12.63
2022-09-21T18:32:27.116Z,12.51
2022-09-21T18:35:15.887Z,12.45
2022-09-21T18:37:59.938Z,12.37
2022-09-21T18:40:54.280Z,12.31
2022-09-21T18:43:44.756Z,12.21
2022-09-21T18:46:22.807Z,12.12
2022-09-21T18:49:21.598Z,12.04
2022-09-21T18:51:59.658Z,11.98
2022-09-21T18:54:26.139Z,11.98
2022-09-21T18:56:53.256Z,11.93
2022-09-21T18:59:20.018Z,11.85
2022-09-21T19:01:47.760Z,11.80
2022-09-21T19:04:15.051Z,11.75
2022-09-21T19:07:20.046Z,11.70
2022-09-21T19:10:15.576Z,11.64
2022-09-21T19:12:42.064Z,11.62
2022-09-21T19:15:42.244Z,11.56
2022-09-21T19:18:29.997Z,11.47
2022-09-21T19:20:56.344Z,11.43
2022-09-21T19:23:47.673Z,11.42
2022-09-21T19:26:31.477Z,11.40
2022-09-21T19:29:24.639Z,11.40
2022-09-21T19:31:51.091Z,11.34
2022-09-21T19:34:19.372Z,11.26
2022-09-21T19:36:46.953Z,11.20
2022-09-21T19:39:14.060Z,11.16
2022-09-21T19:42:06.051Z,11.15
2022-09-21T19:44:50.110Z,11.06
2022-09-21T19:47:24.763Z,11.01
2022-09-21T19:49:53.679Z,10.94
2022-09-21T19:52:28.862Z,11.11
2022-09-21T19:54:55.580Z,11.54
2022-09-21T19:57:24.857Z,11.29
2022-09-21T19:59:57.077Z,11.10
2022-09-21T20:02:30.548Z,11.02
2022-09-21T20:05:05.210Z,10.88
2022-09-21T20:07:54.665Z,10.78
2022-09-21T20:10:21.279Z,10.69
2022-09-21T20:13:07.500Z,10.66
2022-09-21T20:15:44.757Z,10.58
2022-09-21T20:18:27.121Z,10.53
2022-09-21T20:20:56.857Z,10.41
2022-09-21T20:23:25.888Z,10.36
2022-09-21T20:26:02.855Z,10.26
2022-09-21T20:28:29.633Z,10.22
2022-09-21T20:30:58.700Z,10.19
2022-09-21T20:33:32.770Z,10.12
2022-09-21T20:36:02.842Z,10.03
2022-09-21T20:38:30.369Z,10.00
2022-09-21T20:40:57.476Z,9.98
2022-09-21T20:43:23.886Z,9.92
2022-09-21T20:45:50.560Z,9.87
2022-09-21T20:48:17.168Z,9.85
2022-09-21T20:50:51.991Z,9.82
2022-09-21T20:53:27.869Z,9.76
2022-09-21T20:55:58.689Z,9.73
2022-09-21T20:58:27.556Z,9.73
2022-09-21T21:01:00.257Z,9.67
2022-09-21T21:03:31.342Z,9.56
2022-09-21T21:06:28.471Z,9.55
2022-09-21T21:08:58.142Z,9.50
2022-09-21T21:11:29.339Z,9.49
2022-09-21T21:13:56.545Z,9.43
2022-09-21T21:16:30.498Z,9.42
2022-09-21T21:18:57.396Z,9.40
2022-09-21T21:21:23.954Z,9.41
2022-09-21T21:23:52.802Z,9.44
2022-09-21T21:26:38.134Z,9.39
2022-09-21T21:29:08.784Z,9.37
2022-09-21T21:31:35.324Z,9.32
2022-09-21T21:34:01.759Z,9.27
2022-09-21T21:36:28.452Z,9.24
2022-09-21T21:38:54.871Z,9.18
2022-09-21T21:41:21.273Z,9.12
2022-09-21T21:43:47.766Z,9.09
2022-09-21T21:46:14.499Z,9.08
2022-09-21T21:48:40.944Z,9.05
2022-09-21T21:51:07.628Z,9.00
2022-09-21T21:53:39.111Z,9.03
2022-09-21T21:56:06.367Z,8.99
2022-09-21T21:58:34.098Z,8.92
2022-09-21T22:01:10.687Z,8.93
2022-09-21T22:03:37.949Z,8.93
2022-09-21T22:06:05.148Z,8.92
2022-09-21T22:08:35.688Z,8.90
2022-09-21T22:11:03.314Z,8.83
2022-09-21T22:13:35.132Z,8.77
2022-09-21T22:16:10.472Z,8.70
2022-09-21T22:18:36.874Z,8.68
2022-09-21T22:21:06.597Z,8.65
2022-09-21T22:23:33.388Z,8.60
2022-09-21T22:26:05.442Z,8.58
2022-09-21T22:28:32.171Z,8.56
2022-09-21T22:31:00.378Z,8.57
2022-09-21T22:33:33.182Z,8.59
2022-09-21T22:36:20.570Z,8.58
2022-09-21T22:38:47.263Z,8.51
2022-09-21T22:41:19.179Z,8.49
2022-09-21T22:43:47.178Z,8.45
2022-09-21T22:46:14.084Z,8.40
2022-09-21T22:48:40.544Z,8.39
2022-09-21T22:51:07.057Z,8.43
2022-09-21T22:53:33.734Z,8.40
2022-09-21T22:56:05.200Z,8.39
2022-09-21T22:58:37.893Z,8.40
2022-09-21T23:01:20.333Z,8.39
2022-09-21T23:03:48.463Z,8.39
2022-09-21T23:06:18.057Z,8.39
2022-09-21T23:08:51.392Z,8.37
2022-09-21T23:11:20.700Z,8.34
2022-09-21T23:13:47.869Z,8.26
2022-09-21T23:16:15.351Z,8.18
2022-09-21T23:18:43.183Z,8.12
2022-09-21T23:21:14.565Z,8.05
2022-09-21T23:23:41.790Z,7.92
2022-09-21T23:26:09.981Z,7.94
2022-09-21T23:28:39.381Z,7.91
2022-09-21T23:31:10.251Z,7.91
2022-09-21T23:33:38.919Z,7.93
2022-09-21T23:36:07.075Z,7.97
2022-09-21T23:38:33.709Z,7.93
2022-09-21T23:41:06.597Z,7.90
2022-09-21T23:43:33.742Z,7.92
2022-09-21T23:46:00.119Z,7.90
2022-09-21T23:48:26.758Z,7.89
2022-09-21T23:50:54.318Z,7.84
2022-09-21T23:53:21.184Z,7.79
2022-09-21T23:55:47.580Z,7.75
2022-09-21T23:58:14.069Z,7.69
